Time;durP1;ratioP1;P1;durP2;ratioP2;P2;SDS_P1;SDS_P2;PMS_P1;PMS_P2;Temp;Humidity;BMP_temperature;BMP_pressure;BME280_temperature;BME280_humidity;BME280_pressure;Samples;Min_cycle;Max_cycle;Signal;HPM_P1;HPM_P2
2021/09/01 00:00:53;;;;;;;29.70;23.60;;;;;;;19.74;70.59;100976.66;1651167;87;21001;-82
2021/09/01 00:03:22;;;;;;;24.10;18.87;;;;;;;19.70;70.70;100972.66;1651319;87;21072;-83
2021/09/01 00:05:51;;;;;;;21.42;15.50;;;;;;;19.68;70.81;100982.53;1651345;87;21819;-84
2021/09/01 00:08:19;;;;;;;15.43;10.68;;;;;;;19.64;70.92;100981.17;1651231;87;21029;-85
2021/09/01 00:10:48;;;;;;;11.55;6.80;;;;;;;19.61;71.04;100983.28;1651433;87;21498;-86
2021/09/01 00:13:15;;;;;;;6.40;5.15;;;;;;;19.56;71.52;100982.92;1649515;86;22186;-83
2021/09/01 00:15:45;;;;;;;9.03;6.65;;;;;;;19.52;72.00;100985.02;1648731;86;21101;-86
2021/09/01 00:18:11;;;;;;;9.60;8.25;;;;;;;19.48;72.40;100987.13;1648733;86;21159;-82
2021/09/01 00:20:38;;;;;;;15.05;9.63;;;;;;;19.45;72.73;100986.11;1648268;87;21582;-86
2021/09/01 00:23:06;;;;;;;13.28;9.68;;;;;;;19.40;73.17;100984.40;1648588;87;21006;-86
2021/09/01 00:25:34;;;;;;;11.78;7.50;;;;;;;19.37;73.77;100986.47;1648492;87;21010;-81
2021/09/01 00:28:02;;;;;;;10.05;6.28;;;;;;;19.34;74.32;100981.02;1648663;86;21631;-81
2021/09/01 00:30:28;;;;;;;8.98;5.65;;;;;;;19.33;74.57;100983.34;1648619;86;21191;-81
2021/09/01 00:32:56;;;;;;;10.68;6.12;;;;;;;19.34;75.10;100977.56;1648459;87;21478;-81
2021/09/01 00:35:24;;;;;;;9.65;5.67;;;;;;;19.36;75.11;100984.35;1648561;86;21587;-84
2021/09/01 00:37:53;;;;;;;10.20;5.53;;;;;;;19.37;75.19;100985.15;1648567;86;21002;-87
2021/09/01 00:40:20;;;;;;;9.03;5.58;;;;;;;19.39;75.27;100985.84;1648615;86;21095;-82
2021/09/01 00:42:48;;;;;;;8.68;5.30;;;;;;;19.41;75.20;100989.17;1648920;87;21137;-90
2021/09/01 00:45:16;;;;;;;10.20;5.97;;;;;;;19.43;75.09;100987.24;1648612;87;21615;-81
2021/09/01 00:47:43;;;;;;;12.25;5.37;;;;;;;19.43;74.99;100986.73;1648764;87;20990;-83
2021/09/01 00:50:11;;;;;;;9.13;5.15;;;;;;;19.43;74.90;100986.73;1648845;86;20993;-82
2021/09/01 00:52:40;;;;;;;8.75;5.40;;;;;;;19.43;74.91;100989.87;1648584;87;21079;-83
2021/09/01 00:55:10;;;;;;;7.17;5.00;;;;;;;19.40;74.92;100983.59;1648628;86;21170;-81
2021/09/01 00:57:40;;;;;;;12.58;5.97;;;;;;;19.37;74.92;100979.89;1648660;86;21139;-83
2021/09/01 01:00:10;;;;;;;17.00;5.60;;;;;;;19.34;75.05;100979.70;1649371;86;21481;-85
2021/09/01 01:02:39;;;;;;;12.65;5.72;;;;;;;19.32;75.16;100976.41;1648445;87;20994;-83
2021/09/01 01:05:07;;;;;;;10.68;6.10;;;;;;;19.28;75.13;100978.98;1648729;87;21002;-84
2021/09/01 01:07:33;;;;;;;9.80;6.20;;;;;;;19.25;75.21;100975.34;1648670;86;21502;-84
2021/09/01 01:10:01;;;;;;;13.25;6.05;;;;;;;19.23;75.25;100977.31;1648627;87;20966;-80
2021/09/01 01:12:27;;;;;;;14.47;6.62;;;;;;;19.21;75.27;100972.66;1648446;86;20959;-82
2021/09/01 01:14:54;;;;;;;13.55;5.58;;;;;;;19.19;75.23;100970.68;1648566;87;20979;-83
2021/09/01 01:17:22;;;;;;;15.65;6.33;;;;;;;19.18;75.16;100967.70;1648516;86;21394;-85
2021/09/01 01:19:52;;;;;;;12.80;6.80;;;;;;;19.19;75.15;100964.59;1648543;87;21085;-84
2021/09/01 01:22:22;;;;;;;14.87;6.90;;;;;;;19.18;75.09;100964.23;1648429;87;20946;-81
2021/09/01 01:25:02;;;;;;;11.65;6.37;;;;;;;19.19;74.94;100960.16;1648735;86;20969;-81
2021/09/01 01:27:40;;;;;;;13.08;6.17;;;;;;;19.18;74.84;100957.66;1648681;86;21779;-81
2021/09/01 01:30:19;;;;;;;19.92;7.10;;;;;;;19.17;74.70;100954.23;1648740;86;21504;-81
2021/09/01 01:32:50;;;;;;;16.55;7.58;;;;;;;19.17;74.68;100949.45;1648437;87;21151;-84
2021/09/01 01:35:36;;;;;;;20.77;6.45;;;;;;;19.14;74.69;100950.58;1648524;87;21061;-86
2021/09/01 01:38:07;;;;;;;13.22;6.80;;;;;;;19.14;74.61;100947.12;1648678;86;21012;-87
2021/09/01 01:40:36;;;;;;;13.40;7.12;;;;;;;19.11;74.67;100948.25;1648216;85;21026;-84
2021/09/01 01:43:03;;;;;;;12.98;6.87;;;;;;;19.09;74.64;100946.72;1648502;86;20954;-80
2021/09/01 01:45:42;;;;;;;10.00;6.30;;;;;;;19.05;74.48;100941.44;1648638;86;21326;-80
2021/09/01 01:48:11;;;;;;;16.30;6.80;;;;;;;19.03;74.20;100946.84;1648576;86;20930;-86
2021/09/01 01:50:41;;;;;;;11.68;5.92;;;;;;;19.02;73.81;100943.38;1648820;86;20953;-83
2021/09/01 01:53:09;;;;;;;14.33;6.22;;;;;;;19.03;73.36;100946.35;1648564;87;20959;-81
2021/09/01 01:55:38;;;;;;;8.00;5.50;;;;;;;19.05;72.83;100949.33;1648771;86;20930;-87
2021/09/01 01:58:05;;;;;;;11.03;6.30;;;;;;;19.04;72.26;100944.55;1648500;87;21179;-80
2021/09/01 02:00:32;;;;;;;11.95;6.58;;;;;;;19.02;71.90;100944.69;1648598;86;20986;-85
2021/09/01 02:02:59;;;;;;;11.43;6.45;;;;;;;19.03;71.31;100941.58;1648614;86;21074;-82
2021/09/01 02:05:26;;;;;;;10.85;5.85;;;;;;;19.03;70.99;100944.20;1648601;86;20958;-82
2021/09/01 02:07:55;;;;;;;12.07;6.35;;;;;;;19.02;70.77;100942.54;1648315;87;21042;-82
2021/09/01 02:10:21;;;;;;;12.47;6.45;;;;;;;19.00;70.80;100936.13;1648257;87;21166;-86
2021/09/01 02:12:48;;;;;;;14.43;6.50;;;;;;;18.99;70.63;100932.31;1649422;86;20965;-80
2021/09/01 02:15:18;;;;;;;16.20;5.70;;;;;;;18.97;70.48;100932.48;1666508;85;21018;-81
2021/09/01 02:17:45;;;;;;;14.30;6.17;;;;;;;18.97;70.30;100931.66;1666363;86;21633;-81
2021/09/01 02:20:15;;;;;;;10.48;6.53;;;;;;;18.97;70.38;100926.39;1666537;85;21054;-81
2021/09/01 02:22:42;;;;;;;12.37;5.75;;;;;;;18.95;70.26;100921.78;1666652;85;21886;-79
2021/09/01 02:25:11;;;;;;;13.93;6.50;;;;;;;18.92;70.26;100924.19;1666481;85;20943;-80
2021/09/01 02:27:40;;;;;;;14.03;6.45;;;;;;;18.92;70.22;100916.81;1666384;85;21027;-82
2021/09/01 02:30:09;;;;;;;13.78;6.12;;;;;;;18.90;70.19;100916.95;1666710;86;21456;-81
2021/09/01 02:32:36;;;;;;;7.35;5.70;;;;;;;18.86;70.18;100914.27;1666624;86;21019;-81
2021/09/01 02:35:04;;;;;;;9.58;7.58;;;;;;;18.83;70.33;100915.88;1666545;85;21158;-81
2021/09/01 02:37:30;;;;;;;21.57;9.30;;;;;;;18.82;70.52;100916.05;1666509;85;21030;-81
2021/09/01 02:39:57;;;;;;;13.35;8.93;;;;;;;18.82;70.63;100916.88;1666759;85;20963;-81
2021/09/01 02:42:23;;;;;;;31.23;20.92;;;;;;;18.81;71.06;100912.59;1666366;86;21083;-82
2021/09/01 02:44:51;;;;;;;19.95;13.68;;;;;;;18.80;71.25;100915.34;1666316;85;21035;-81
2021/09/01 02:47:19;;;;;;;23.02;14.65;;;;;;;18.77;71.54;100909.07;1666600;86;22110;-80
2021/09/01 02:49:46;;;;;;;14.47;8.90;;;;;;;18.75;71.84;100917.12;1666481;86;20971;-81
2021/09/01 02:52:13;;;;;;;17.92;9.48;;;;;;;18.70;72.18;100915.41;1666289;85;21541;-81
2021/09/01 02:54:41;;;;;;;16.65;8.73;;;;;;;18.67;72.41;100912.23;1666597;86;20939;-80
2021/09/01 02:57:08;;;;;;;14.65;6.87;;;;;;;18.65;72.73;100919.45;1666548;85;21081;-81
2021/09/01 02:59:35;;;;;;;13.25;7.45;;;;;;;18.62;72.99;100917.12;1666445;86;21169;-80
2021/09/01 03:02:01;;;;;;;15.05;9.50;;;;;;;18.62;73.34;100911.86;1666604;86;21600;-82
2021/09/01 03:04:29;;;;;;;19.87;11.40;;;;;;;18.61;73.46;100918.91;1666751;86;20959;-81
2021/09/01 03:06:56;;;;;;;13.88;9.20;;;;;;;18.51;73.72;100915.50;1666560;86;21529;-81
2021/09/01 03:09:24;;;;;;;10.13;6.67;;;;;;;18.43;73.98;100924.11;1647186;86;21027;-83
2021/09/01 03:11:53;;;;;;;10.88;6.35;;;;;;;18.35;74.02;100917.89;1666646;85;21159;-80
2021/09/01 03:14:19;;;;;;;12.75;6.45;;;;;;;18.25;74.27;100924.50;1658005;85;20994;-80
2021/09/01 03:16:47;;;;;;;14.38;6.28;;;;;;;18.22;74.64;100924.80;1651392;85;20994;-82
2021/09/01 03:19:14;;;;;;;12.58;9.03;;;;;;;18.18;75.00;100920.82;1651113;87;20961;-82
2021/09/01 03:21:40;;;;;;;16.93;9.48;;;;;;;18.16;75.33;100924.53;1651492;86;21054;-89
2021/09/01 03:24:08;;;;;;;11.50;9.03;;;;;;;18.12;75.60;100927.13;1651175;87;21449;-81
2021/09/01 03:26:35;;;;;;;18.82;8.65;;;;;;;18.06;75.70;100922.45;1651091;86;21006;-80
2021/09/01 03:29:02;;;;;;;15.90;7.62;;;;;;;17.99;75.90;100923.50;1651340;86;21627;-80
2021/09/01 03:31:29;;;;;;;14.85;6.85;;;;;;;17.96;76.09;100923.28;1651182;86;21045;-80
2021/09/01 03:33:55;;;;;;;11.10;6.83;;;;;;;17.95;76.41;100926.90;1651396;87;21010;-81
2021/09/01 03:36:22;;;;;;;12.55;6.62;;;;;;;17.95;76.37;100928.20;1651265;87;21171;-83
2021/09/01 03:38:49;;;;;;;17.65;6.60;;;;;;;17.94;76.29;100927.86;1651165;87;20989;-81
2021/09/01 03:41:16;;;;;;;9.05;6.20;;;;;;;17.92;76.42;100938.17;1651120;86;21105;-81
2021/09/01 03:43:43;;;;;;;11.45;5.95;;;;;;;17.89;76.86;100926.16;1651183;87;21651;-81
2021/09/01 03:46:09;;;;;;;16.57;5.72;;;;;;;17.89;77.06;100930.57;1651391;86;20994;-80
2021/09/01 03:48:36;;;;;;;14.55;6.00;;;;;;;17.88;77.04;100932.84;1651324;86;21136;-88
2021/09/01 03:51:03;;;;;;;14.03;6.70;;;;;;;17.88;77.30;100929.74;1651160;87;21005;-80
2021/09/01 03:53:31;;;;;;;16.95;6.12;;;;;;;17.89;77.58;100936.66;1651251;85;20958;-81
2021/09/01 03:55:58;;;;;;;17.87;6.78;;;;;;;17.91;78.00;100941.75;1651209;86;20974;-87
2021/09/01 03:58:25;;;;;;;10.43;5.83;;;;;;;17.92;78.50;100939.48;1651164;87;21037;-84
2021/09/01 04:00:53;;;;;;;17.00;5.62;;;;;;;17.92;78.62;100946.88;1651377;86;21788;-81
2021/09/01 04:03:21;;;;;;;12.10;6.17;;;;;;;17.90;78.75;100948.80;1651048;87;20998;-89
2021/09/01 04:05:48;;;;;;;14.95;6.95;;;;;;;17.89;78.90;100948.95;1651432;86;21595;-89
2021/09/01 04:08:15;;;;;;;19.98;7.30;;;;;;;17.87;79.04;100954.81;1651041;86;21504;-81
2021/09/01 04:10:42;;;;;;;12.30;6.15;;;;;;;17.84;79.21;100953.78;1651263;87;21068;-86
2021/09/01 04:13:09;;;;;;;9.70;6.35;;;;;;;17.84;79.61;100959.03;1651392;87;21205;-83
2021/09/01 04:15:36;;;;;;;17.32;6.40;;;;;;;17.84;79.88;100961.66;1651088;86;20934;-80
2021/09/01 04:18:03;;;;;;;14.43;6.67;;;;;;;17.82;80.05;100962.29;1651125;87;20950;-81
2021/09/01 04:20:30;;;;;;;18.12;6.78;;;;;;;17.84;80.18;100961.66;1651255;87;21383;-83
2021/09/01 04:22:57;;;;;;;18.62;6.65;;;;;;;17.87;80.17;100964.00;1651449;86;21022;-82
2021/09/01 04:25:25;;;;;;;14.87;6.25;;;;;;;17.90;80.12;100963.75;1651219;86;21761;-86
2021/09/01 04:27:52;;;;;;;18.40;7.00;;;;;;;17.92;80.12;100967.05;1651345;86;20986;-83
2021/09/01 04:30:19;;;;;;;16.82;6.50;;;;;;;17.95;80.14;100969.39;1650912;87;21011;-86
2021/09/01 04:32:46;;;;;;;13.15;6.28;;;;;;;17.97;80.14;100963.50;1650891;86;20966;-87
2021/09/01 04:35:12;;;;;;;17.62;5.92;;;;;;;18.00;80.28;100965.04;1651087;87;20966;-84
2021/09/01 04:37:39;;;;;;;16.12;6.33;;;;;;;18.02;80.37;100963.09;1651004;86;21157;-90
2021/09/01 04:40:10;;;;;;;12.50;5.40;;;;;;;18.05;80.50;100957.55;1651493;86;20919;-90
2021/09/01 04:42:36;;;;;;;10.95;5.55;;;;;;;18.11;80.70;100956.50;1650110;85;21026;-85
2021/09/01 04:45:05;;;;;;;11.33;5.95;;;;;;;18.20;80.72;100955.64;1651397;86;20994;-79
2021/09/01 04:47:32;;;;;;;11.48;5.90;;;;;;;18.28;80.47;100948.38;1626756;87;21028;-80
2021/09/01 04:50:05;;;;;;;7.42;5.78;;;;;;;18.34;79.97;100953.05;1651332;85;21531;-86
2021/09/01 04:52:36;;;;;;;19.02;5.60;;;;;;;18.40;79.18;100948.53;1651430;87;20967;-81
2021/09/01 04:55:04;;;;;;;12.58;5.50;;;;;;;18.47;79.02;100948.30;1651260;87;20926;-81
2021/09/01 04:57:31;;;;;;;10.63;4.72;;;;;;;18.54;78.60;100949.37;1651144;87;21342;-81
2021/09/01 04:59:57;;;;;;;8.75;5.28;;;;;;;18.61;78.25;100946.52;1651200;87;20943;-80
2021/09/01 05:02:24;;;;;;;7.50;5.40;;;;;;;18.67;77.93;100948.56;1651074;86;21166;-80
2021/09/01 05:04:51;;;;;;;11.18;5.70;;;;;;;18.72;77.71;100946.81;1650956;87;20978;-80
2021/09/01 05:07:17;;;;;;;17.50;5.80;;;;;;;18.74;77.83;100948.80;1650905;86;21599;-86
2021/09/01 05:09:44;;;;;;;12.78;5.85;;;;;;;18.77;78.00;100954.59;1651371;87;20954;-89
2021/09/01 05:12:11;;;;;;;16.32;7.25;;;;;;;18.79;77.62;100951.84;1651309;87;21025;-84
2021/09/01 05:14:38;;;;;;;30.12;19.02;;;;;;;18.83;77.67;100947.92;1651152;86;21196;-82
2021/09/01 05:17:07;;;;;;;28.83;21.45;;;;;;;18.87;77.18;100951.44;1651217;85;20934;-82
2021/09/01 05:19:36;;;;;;;32.35;24.47;;;;;;;18.92;76.87;100952.32;1650946;87;21697;-80
2021/09/01 05:22:05;;;;;;;52.15;44.42;;;;;;;18.97;76.11;100943.48;1651060;87;21070;-80
2021/09/01 05:25:08;;;;;;;49.20;41.53;;;;;;;19.03;75.40;100949.47;1651198;85;21006;-78
2021/09/01 05:27:40;;;;;;;55.20;47.05;;;;;;;19.10;75.19;100939.18;1651047;87;21217;-85
2021/09/01 05:30:12;;;;;;;39.60;29.60;;;;;;;19.17;75.55;100941.08;1651322;85;20943;-88
2021/09/01 05:32:47;;;;;;;48.83;39.75;;;;;;;19.24;75.52;100939.98;1651008;86;21086;-82
2021/09/01 05:35:12;;;;;;;45.23;34.75;;;;;;;19.30;75.19;100942.84;1650134;87;20871;-80
2021/09/01 05:37:40;;;;;;;32.58;22.32;;;;;;;19.37;75.44;100941.73;1651479;86;21469;-80
2021/09/01 05:40:09;;;;;;;28.50;23.35;;;;;;;19.45;75.46;100947.11;1651118;87;21171;-80
2021/09/01 05:42:35;;;;;;;22.20;18.37;;;;;;;19.52;75.12;100937.64;1651044;87;20987;-85
2021/09/01 05:45:04;;;;;;;18.98;13.40;;;;;;;19.61;74.60;100935.89;1651079;86;21108;-88
2021/09/01 05:47:35;;;;;;;15.55;11.10;;;;;;;19.68;73.71;100930.35;1651018;87;21549;-88
2021/09/01 05:50:03;;;;;;;8.68;6.83;;;;;;;19.75;73.86;100929.56;1650957;86;21092;-83
2021/09/01 05:52:29;;;;;;;7.42;4.80;;;;;;;19.83;73.37;100929.64;1650840;87;21155;-87
2021/09/01 05:54:59;;;;;;;7.80;5.50;;;;;;;19.89;72.39;100929.51;1651108;87;21579;-82
2021/09/01 05:57:36;;;;;;;8.33;4.53;;;;;;;19.97;72.34;100929.06;1651101;86;20986;-84
2021/09/01 06:00:14;;;;;;;8.70;4.00;;;;;;;20.04;69.54;100924.83;1672552;84;21173;-82
2021/09/01 06:02:56;;;;;;;6.62;4.05;;;;;;;20.13;69.00;100934.95;1669937;84;21240;-79
2021/09/01 06:05:24;;;;;;;9.63;8.13;;;;;;;20.16;66.20;100925.41;1657936;85;21171;-78
2021/09/01 06:07:58;;;;;;;17.55;14.70;;;;;;;20.20;64.21;100927.25;1652636;85;21506;-84
2021/09/01 06:10:31;;;;;;;9.88;6.85;;;;;;;20.23;64.84;100924.30;1677450;85;21022;-83
2021/09/01 06:13:11;;;;;;;9.05;5.60;;;;;;;20.26;64.70;100935.35;1669164;85;21083;-81
2021/09/01 06:15:40;;;;;;;10.23;4.03;;;;;;;20.29;65.26;100930.28;1690803;84;21097;-81
2021/09/01 06:18:08;;;;;;;11.93;7.45;;;;;;;20.36;65.64;100929.48;1649014;87;21161;-81
2021/09/01 06:20:36;;;;;;;10.28;5.85;;;;;;;20.42;65.07;100932.80;1670636;85;21086;-82
2021/09/01 06:23:06;;;;;;;21.55;15.40;;;;;;;20.46;64.27;100934.14;1658825;85;21015;-84
2021/09/01 06:25:35;;;;;;;26.57;23.05;;;;;;;20.51;63.68;100929.24;1677995;85;21010;-80
2021/09/01 06:28:04;;;;;;;24.65;20.75;;;;;;;20.61;63.03;100929.59;1670152;86;21079;-83
2021/09/01 06:30:44;;;;;;;22.73;14.00;;;;;;;20.69;61.29;100928.30;1677519;85;21835;-82
2021/09/01 06:33:15;;;;;;;9.43;6.75;;;;;;;20.76;61.12;100923.55;1681224;84;20979;-85
2021/09/01 06:35:49;;;;;;;6.20;3.27;;;;;;;20.82;61.09;100922.91;1708369;84;21900;-82
2021/09/01 06:38:21;;;;;;;9.55;5.58;;;;;;;20.90;60.25;100924.23;1709041;84;21107;-85
2021/09/01 06:40:55;;;;;;;7.78;5.20;;;;;;;20.98;59.54;100924.27;1708880;82;21053;-86
2021/09/01 06:43:23;;;;;;;4.42;2.70;;;;;;;21.07;57.43;100926.41;1708525;82;21661;-84
2021/09/01 06:45:52;;;;;;;3.35;2.35;;;;;;;21.13;56.53;100928.44;1709361;82;21099;-84
2021/09/01 06:48:25;;;;;;;4.35;3.85;;;;;;;21.19;56.42;100926.98;1709020;83;21111;-82
2021/09/01 06:51:10;;;;;;;5.87;3.87;;;;;;;21.23;56.67;100933.56;1705397;84;21036;-79
2021/09/01 06:53:38;;;;;;;4.28;2.85;;;;;;;21.25;56.12;100928.97;1703191;83;21069;-86
2021/09/01 06:56:07;;;;;;;3.37;2.95;;;;;;;21.26;56.45;100922.19;1672252;84;21359;-86
2021/09/01 06:58:48;;;;;;;2.55;2.35;;;;;;;21.33;56.32;100928.95;1710374;83;21171;-86
2021/09/01 07:01:15;;;;;;;10.48;5.65;;;;;;;21.42;56.08;100928.80;1687444;84;21558;-76
2021/09/01 07:03:45;;;;;;;3.55;3.17;;;;;;;21.46;53.94;100926.16;1707531;83;21020;-88
2021/09/01 07:06:12;;;;;;;5.60;2.65;;;;;;;21.52;53.70;100933.91;1708058;84;21016;-85
2021/09/01 07:08:39;;;;;;;6.67;3.00;;;;;;;21.60;52.98;100930.77;1707803;84;21168;-82
2021/09/01 07:11:07;;;;;;;3.35;2.60;;;;;;;21.66;52.84;100929.30;1707816;84;20996;-78
2021/09/01 07:13:34;;;;;;;2.92;2.27;;;;;;;21.77;51.48;100932.08;1708095;84;21583;-79
2021/09/01 07:16:05;;;;;;;6.22;1.98;;;;;;;21.78;51.99;100927.13;1714404;83;20997;-87
2021/09/01 07:18:33;;;;;;;3.98;2.17;;;;;;;21.82;52.51;100929.78;1708176;83;20909;-89
2021/09/01 07:21:01;;;;;;;2.90;1.87;;;;;;;21.84;53.00;100931.26;1710500;83;21326;-87
2021/09/01 07:23:28;;;;;;;11.43;6.80;;;;;;;21.90;52.65;100936.39;1715675;83;20933;-85
2021/09/01 07:25:58;;;;;;;11.68;8.88;;;;;;;21.96;53.05;100928.63;1717448;83;20957;-83
2021/09/01 07:28:26;;;;;;;3.25;2.25;;;;;;;21.99;53.40;100921.67;1716457;83;38212;-89
2021/09/01 07:30:53;;;;;;;6.50;2.37;;;;;;;22.06;53.16;100931.08;1716689;83;20913;-82
2021/09/01 07:33:22;;;;;;;6.35;2.50;;;;;;;22.10;53.76;100931.08;1716574;83;21167;-83
2021/09/01 07:35:50;;;;;;;5.22;2.60;;;;;;;22.11;53.84;100931.41;1716500;83;21454;-78
2021/09/01 07:38:18;;;;;;;9.08;3.80;;;;;;;22.10;54.72;100930.58;1717041;83;21129;-85
2021/09/01 07:40:44;;;;;;;5.72;2.27;;;;;;;22.17;54.01;100937.83;1716803;83;20961;-83
2021/09/01 07:43:13;;;;;;;4.05;2.47;;;;;;;22.18;54.07;100927.08;1716180;83;21092;-79
2021/09/01 07:45:42;;;;;;;5.42;2.10;;;;;;;22.24;55.30;100929.56;1715636;83;22360;-84
2021/09/01 07:48:14;;;;;;;5.08;2.50;;;;;;;22.28;55.19;100920.27;1715716;83;20994;-83
2021/09/01 07:50:42;;;;;;;2.72;2.22;;;;;;;22.30;52.49;100916.98;1714446;83;20990;-79
2021/09/01 07:53:09;;;;;;;2.92;2.65;;;;;;;22.31;55.42;100913.31;1716542;83;20948;-80
2021/09/01 07:55:37;;;;;;;2.02;1.65;;;;;;;22.39;52.96;100908.84;1716631;83;21610;-86
2021/09/01 07:58:05;;;;;;;2.52;2.10;;;;;;;22.46;50.12;100911.63;1696932;83;20941;-84
2021/09/01 08:00:34;;;;;;;15.53;12.10;;;;;;;22.46;51.19;100891.27;1716559;83;21001;-81
2021/09/01 08:03:01;;;;;;;3.83;3.02;;;;;;;22.45;51.13;100899.39;1716823;83;21028;-89
2021/09/01 08:05:28;;;;;;;4.28;2.75;;;;;;;22.47;53.29;100906.16;1716612;83;21135;-82
2021/09/01 08:07:58;;;;;;;13.98;8.83;;;;;;;22.47;54.30;100894.25;1716948;83;21033;-85
2021/09/01 08:10:27;;;;;;;8.80;6.80;;;;;;;22.56;52.06;100898.50;1698039;83;20938;-84
2021/09/01 08:12:55;;;;;;;4.15;2.42;;;;;;;22.60;50.02;100886.58;1716468;83;21515;-86
2021/09/01 08:15:31;;;;;;;11.38;3.85;;;;;;;22.62;50.67;100884.58;1712608;83;20996;-78
2021/09/01 08:18:15;;;;;;;5.20;3.00;;;;;;;22.67;50.55;100885.42;1694207;83;21004;-82
2021/09/01 08:20:56;;;;;;;13.08;5.70;;;;;;;22.72;51.11;100883.06;1710085;83;20865;-82
2021/09/01 08:23:24;;;;;;;4.37;2.58;;;;;;;22.74;51.28;100875.80;1709309;82;21147;-86
2021/09/01 08:25:52;;;;;;;5.10;2.60;;;;;;;22.83;49.84;100884.01;1709508;84;21133;-81
2021/09/01 08:28:24;;;;;;;6.10;2.67;;;;;;;22.89;49.62;100882.48;1709824;84;20895;-84
2021/09/01 08:30:53;;;;;;;5.83;3.77;;;;;;;22.95;49.67;100881.77;1694924;84;21087;-81
2021/09/01 08:33:22;;;;;;;6.40;2.75;;;;;;;23.06;48.41;100880.05;1707557;83;20988;-79
2021/09/01 08:35:51;;;;;;;5.50;3.50;;;;;;;23.10;47.64;100874.73;1707314;83;21536;-79
2021/09/01 08:38:18;;;;;;;7.58;3.35;;;;;;;23.15;46.97;100870.55;1706845;82;21682;-77
2021/09/01 08:40:47;;;;;;;6.45;3.87;;;;;;;23.15;47.39;100873.70;1700994;84;21156;-80
2021/09/01 08:43:21;;;;;;;9.00;6.08;;;;;;;23.13;47.61;100862.47;1706647;84;21495;-84
2021/09/01 08:45:49;;;;;;;6.05;3.65;;;;;;;23.16;48.26;100858.97;1707190;84;20985;-79
2021/09/01 08:48:18;;;;;;;10.05;5.92;;;;;;;23.32;48.05;100863.30;1707516;83;21012;-81
2021/09/01 08:50:48;;;;;;;9.00;7.03;;;;;;;23.42;46.68;100867.06;1708224;83;20976;-78
2021/09/01 08:53:19;;;;;;;11.10;7.90;;;;;;;23.42;46.24;100865.20;1709010;84;21266;-81
2021/09/01 08:56:10;;;;;;;4.42;2.85;;;;;;;23.44;47.23;100869.84;1708052;84;21007;-79
2021/09/01 08:58:38;;;;;;;3.90;3.08;;;;;;;23.48;46.87;100865.02;1709167;82;21032;-80
2021/09/01 09:01:05;;;;;;;10.45;3.55;;;;;;;23.46;46.78;100869.65;1708608;83;21211;-81
2021/09/01 09:03:41;;;;;;;12.25;6.08;;;;;;;23.42;46.00;100861.23;1708745;84;21008;-86
2021/09/01 09:06:08;;;;;;;15.28;8.28;;;;;;;23.45;46.10;100873.32;1676129;84;21022;-83
2021/09/01 09:08:41;;;;;;;15.35;8.88;;;;;;;23.54;45.18;100867.77;1696239;84;21030;-82
2021/09/01 09:11:08;;;;;;;10.90;7.30;;;;;;;23.66;45.19;100860.19;1696792;84;20993;-84
2021/09/01 09:13:37;;;;;;;10.20;6.60;;;;;;;23.73;44.56;100857.14;1649839;87;22648;-89
2021/09/01 09:16:07;;;;;;;5.28;2.40;;;;;;;23.77;44.29;100858.44;1649641;86;21018;-86
2021/09/01 09:18:36;;;;;;;11.68;10.20;;;;;;;23.81;43.42;100854.89;1670476;85;21074;-76
2021/09/01 09:21:25;;;;;;;9.48;6.10;;;;;;;23.84;43.09;100858.50;1661352;85;21047;-83
2021/09/01 09:23:53;;;;;;;6.22;3.60;;;;;;;23.84;42.52;100847.91;1643487;87;21030;-82
2021/09/01 09:26:30;;;;;;;10.98;3.65;;;;;;;23.92;42.06;100845.17;1620727;87;21208;-82
2021/09/01 09:29:16;;;;;;;5.37;2.40;;;;;;;23.96;41.72;100852.59;1642590;87;21182;-80
2021/09/01 09:32:04;;;;;;;3.75;2.20;;;;;;;24.02;42.19;100848.38;1641884;87;21189;-83
2021/09/01 09:34:39;;;;;;;6.42;2.60;;;;;;;24.14;42.14;100836.33;1642136;87;21019;-81
2021/09/01 09:37:13;;;;;;;10.28;5.08;;;;;;;24.17;42.12;100838.61;1664501;85;21051;-82
2021/09/01 09:39:47;;;;;;;6.45;4.35;;;;;;;24.19;41.34;100828.12;1649797;87;21231;-85
2021/09/01 09:42:30;;;;;;;12.47;8.30;;;;;;;24.26;41.76;100832.19;1650345;87;21096;-86
2021/09/01 09:44:57;;;;;;;6.53;4.83;;;;;;;24.39;42.53;100833.67;1705710;83;21021;-80
2021/09/01 09:47:47;;;;;;;6.92;6.00;;;;;;;24.44;41.18;100838.43;1706252;83;21022;-78
2021/09/01 09:50:15;;;;;;;12.33;8.40;;;;;;;24.80;40.46;100833.91;1706497;82;21578;-79
2021/09/01 09:52:43;;;;;;;6.45;2.35;;;;;;;25.87;38.33;100830.11;1703371;84;21345;-81
2021/09/01 09:55:13;;;;;;;8.20;6.80;;;;;;;26.66;35.69;100828.59;1705231;84;21102;-83
2021/09/01 09:58:02;;;;;;;10.95;6.00;;;;;;;27.25;34.10;100824.67;1706037;84;21497;-85
2021/09/01 10:00:30;;;;;;;4.47;1.67;;;;;;;27.98;34.61;100817.91;1689563;83;21544;-84
2021/09/01 10:02:57;;;;;;;4.10;1.77;;;;;;;28.88;32.28;100821.16;1689801;84;21077;-84
2021/09/01 10:05:27;;;;;;;2.22;1.57;;;;;;;29.49;30.14;100820.97;1689319;84;21075;-80
2021/09/01 10:07:58;;;;;;;2.58;1.07;;;;;;;30.01;28.58;100818.28;1666903;84;21604;-88
2021/09/01 10:10:25;;;;;;;3.87;1.62;;;;;;;30.42;28.69;100807.16;1688549;84;21070;-84
2021/09/01 10:12:54;;;;;;;3.90;3.47;;;;;;;31.20;28.27;100816.92;1689024;84;21039;-89
2021/09/01 10:15:31;;;;;;;1.92;1.20;;;;;;;31.51;26.55;100808.55;1689619;84;21061;-83
2021/09/01 10:18:08;;;;;;;2.75;1.20;;;;;;;31.91;24.90;100803.20;1689447;83;21179;-85
2021/09/01 10:20:42;;;;;;;1.70;0.90;;;;;;;32.03;25.18;100817.96;1689187;83;21589;-89
2021/09/01 10:23:09;;;;;;;1.40;0.98;;;;;;;31.96;25.21;100808.70;1689266;83;21005;-81
2021/09/01 10:25:49;;;;;;;6.80;5.17;;;;;;;31.34;26.24;100811.60;1689333;84;21214;-88
2021/09/01 10:28:35;;;;;;;4.08;1.50;;;;;;;30.53;27.41;100803.42;1688974;84;21085;-84
2021/09/01 10:31:20;;;;;;;1.65;1.47;;;;;;;29.68;28.63;100805.24;1688375;84;21886;-82
2021/09/01 10:33:53;;;;;;;3.65;3.35;;;;;;;29.09;30.08;100801.80;1689287;84;21078;-89
2021/09/01 10:36:33;;;;;;;8.40;3.98;;;;;;;29.01;30.95;100798.04;1700440;84;21119;-83
2021/09/01 10:39:30;;;;;;;8.90;3.40;;;;;;;28.70;30.96;100797.05;1706114;83;21084;-88
2021/09/01 10:41:57;;;;;;;6.12;1.82;;;;;;;28.28;32.03;100811.02;1706456;84;21107;-82
2021/09/01 10:44:36;;;;;;;9.33;2.37;;;;;;;27.84;32.65;100788.61;1691700;84;21103;-85
2021/09/01 10:47:03;;;;;;;3.15;2.10;;;;;;;27.62;32.86;100801.08;1706061;84;21047;-80
2021/09/01 10:50:01;;;;;;;2.35;1.50;;;;;;;27.32;33.29;100796.69;1706048;83;21064;-89
2021/09/01 10:52:50;;;;;;;3.50;1.37;;;;;;;27.12;33.79;100800.69;1706511;83;21617;-80
2021/09/01 10:55:17;;;;;;;3.20;1.20;;;;;;;27.03;34.45;100783.27;1684281;83;21139;-81
2021/09/01 10:57:45;;;;;;;2.72;1.80;;;;;;;27.06;33.48;100792.19;1682480;84;21820;-80
2021/09/01 11:00:19;;;;;;;4.90;2.08;;;;;;;26.92;33.68;100789.74;1624972;85;21560;-81
2021/09/01 11:02:55;;;;;;;3.25;1.98;;;;;;;26.79;33.79;100782.53;1677289;85;21477;-88
2021/09/01 11:05:22;;;;;;;7.53;6.83;;;;;;;26.76;33.96;100779.77;1677266;85;21093;-84
2021/09/01 11:07:55;;;;;;;2.20;1.85;;;;;;;26.83;33.59;100775.81;1676972;85;21112;-82
2021/09/01 11:10:23;;;;;;;5.35;1.57;;;;;;;26.93;33.16;100783.40;1677018;85;21811;-82
2021/09/01 11:13:00;;;;;;;6.25;1.62;;;;;;;26.96;32.64;100777.66;1676844;85;21098;-84
2021/09/01 11:15:28;;;;;;;5.37;2.55;;;;;;;26.99;32.43;100785.24;1681579;84;21105;-81
2021/09/01 11:18:06;;;;;;;2.75;2.40;;;;;;;27.03;32.74;100771.80;1668537;84;21014;-80
2021/09/01 11:20:33;;;;;;;4.87;1.90;;;;;;;27.18;32.47;100767.92;1645409;87;21106;-76
2021/09/01 11:23:02;;;;;;;7.80;1.85;;;;;;;27.30;32.44;100777.43;1642311;86;21163;-81
2021/09/01 11:25:30;;;;;;;5.97;1.67;;;;;;;27.31;32.30;100763.88;1674473;85;21034;-79
2021/09/01 11:27:57;;;;;;;3.35;1.40;;;;;;;27.34;31.65;100762.67;1674302;85;21020;-83
2021/09/01 11:30:32;;;;;;;4.75;2.08;;;;;;;27.17;31.93;100760.95;1674633;85;21054;-77
2021/09/01 11:32:59;;;;;;;3.10;1.40;;;;;;;27.08;31.75;100762.19;1674541;85;21010;-82